sensor_id;sensor_type;location;lat;lon;timestamp;temperature;humidity
17918;DHT22;9084;50.956;3.106;2023-12-29T00:00:40;10.20;99.90
17918;DHT22;9084;50.956;3.106;2023-12-29T00:03:05;10.20;99.90
17918;DHT22;9084;50.956;3.106;2023-12-29T00:05:36;10.20;99.90
17918;DHT22;9084;50.956;3.106;2023-12-29T00:08:01;10.20;99.90
17918;DHT22;9084;50.956;3.106;2023-12-29T00:10:27;10.10;99.90
17918;DHT22;9084;50.956;3.106;2023-12-29T00:12:53;10.10;99.90
17918;DHT22;9084;50.956;3.106;2023-12-29T00:15:18;10.20;99.90
17918;DHT22;9084;50.956;3.106;2023-12-29T00:17:44;10.20;99.90
17918;DHT22;9084;50.956;3.106;2023-12-29T00:20:14;10.20;99.90
17918;DHT22;9084;50.956;3.106;2023-12-29T00:22:39;10.20;99.90
17918;DHT22;9084;50.956;3.106;2023-12-29T00:25:05;10.20;99.90
17918;DHT22;9084;50.956;3.106;2023-12-29T00:27:35;10.20;99.90
17918;DHT22;9084;50.956;3.106;2023-12-29T00:30:01;10.20;99.90
17918;DHT22;9084;50.956;3.106;2023-12-29T00:32:26;10.20;99.90
17918;DHT22;9084;50.956;3.106;2023-12-29T00:34:54;10.20;99.90
17918;DHT22;9084;50.956;3.106;2023-12-29T00:37:20;10.20;99.90
17918;DHT22;9084;50.956;3.106;2023-12-29T00:39:45;10.30;99.90
17918;DHT22;9084;50.956;3.106;2023-12-29T00:42:11;10.30;99.90
17918;DHT22;9084;50.956;3.106;2023-12-29T00:44:37;10.40;99.90
17918;DHT22;9084;50.956;3.106;2023-12-29T00:47:03;10.40;99.90
17918;DHT22;9084;50.956;3.106;2023-12-29T00:49:28;10.50;99.90
17918;DHT22;9084;50.956;3.106;2023-12-29T00:51:54;10.50;99.90
17918;DHT22;9084;50.956;3.106;2023-12-29T00:54:20;10.50;99.90
17918;DHT22;9084;50.956;3.106;2023-12-29T00:56:52;10.50;99.90
17918;DHT22;9084;50.956;3.106;2023-12-29T00:59:19;10.50;99.90
17918;DHT22;9084;50.956;3.106;2023-12-29T01:01:47;10.50;99.90
17918;DHT22;9084;50.956;3.106;2023-12-29T01:04:12;10.50;99.90
17918;DHT22;9084;50.956;3.106;2023-12-29T01:06:38;10.50;99.90
17918;DHT22;9084;50.956;3.106;2023-12-29T01:09:05;10.50;99.90
17918;DHT22;9084;50.956;3.106;2023-12-29T01:11:31;10.50;99.90
17918;DHT22;9084;50.956;3.106;2023-12-29T01:13:57;10.50;99.90
17918;DHT22;9084;50.956;3.106;2023-12-29T01:16:25;10.50;99.90
17918;DHT22;9084;50.956;3.106;2023-12-29T01:18:53;10.50;99.90
17918;DHT22;9084;50.956;3.106;2023-12-29T01:21:21;10.40;99.90
17918;DHT22;9084;50.956;3.106;2023-12-29T01:23:46;10.40;99.90
17918;DHT22;9084;50.956;3.106;2023-12-29T01:26:12;10.40;99.90
17918;DHT22;9084;50.956;3.106;2023-12-29T01:28:40;10.40;99.90
17918;DHT22;9084;50.956;3.106;2023-12-29T01:31:05;10.40;99.90
17918;DHT22;9084;50.956;3.106;2023-12-29T01:33:34;10.40;99.90
17918;DHT22;9084;50.956;3.106;2023-12-29T01:36:00;10.50;99.90
17918;DHT22;9084;50.956;3.106;2023-12-29T01:38:25;10.50;99.90
17918;DHT22;9084;50.956;3.106;2023-12-29T01:40:51;10.50;99.90
17918;DHT22;9084;50.956;3.106;2023-12-29T01:43:17;10.50;99.90
17918;DHT22;9084;50.956;3.106;2023-12-29T01:45:43;10.60;99.90
17918;DHT22;9084;50.956;3.106;2023-12-29T01:48:10;10.50;99.90
17918;DHT22;9084;50.956;3.106;2023-12-29T01:50:36;10.60;99.90
17918;DHT22;9084;50.956;3.106;2023-12-29T01:53:06;10.60;99.90
17918;DHT22;9084;50.956;3.106;2023-12-29T01:55:32;10.70;99.90
17918;DHT22;9084;50.956;3.106;2023-12-29T01:57:58;10.70;99.90
17918;DHT22;9084;50.956;3.106;2023-12-29T02:00:24;10.80;99.90
17918;DHT22;9084;50.956;3.106;2023-12-29T02:02:50;10.80;99.90
17918;DHT22;9084;50.956;3.106;2023-12-29T02:05:17;10.80;99.90
17918;DHT22;9084;50.956;3.106;2023-12-29T02:07:45;10.90;99.90
17918;DHT22;9084;50.956;3.106;2023-12-29T02:10:12;10.90;99.90
17918;DHT22;9084;50.956;3.106;2023-12-29T02:12:41;11.00;99.90
17918;DHT22;9084;50.956;3.106;2023-12-29T02:15:07;11.00;99.90
17918;DHT22;9084;50.956;3.106;2023-12-29T02:18:02;11.00;99.90
17918;DHT22;9084;50.956;3.106;2023-12-29T02:20:28;11.10;99.90
17918;DHT22;9084;50.956;3.106;2023-12-29T02:22:54;11.10;99.90
17918;DHT22;9084;50.956;3.106;2023-12-29T02:25:20;11.10;99.90
17918;DHT22;9084;50.956;3.106;2023-12-29T02:28:04;11.10;99.90
17918;DHT22;9084;50.956;3.106;2023-12-29T02:30:43;11.10;99.90
17918;DHT22;9084;50.956;3.106;2023-12-29T02:33:20;11.10;99.90
17918;DHT22;9084;50.956;3.106;2023-12-29T02:35:48;11.10;99.90
17918;DHT22;9084;50.956;3.106;2023-12-29T02:38:16;11.10;99.90
17918;DHT22;9084;50.956;3.106;2023-12-29T02:40:41;11.00;99.90
17918;DHT22;9084;50.956;3.106;2023-12-29T02:43:09;11.00;99.90
17918;DHT22;9084;50.956;3.106;2023-12-29T02:45:35;10.90;99.90
17918;DHT22;9084;50.956;3.106;2023-12-29T02:48:03;10.90;99.90
17918;DHT22;9084;50.956;3.106;2023-12-29T02:50:33;10.90;99.90
17918;DHT22;9084;50.956;3.106;2023-12-29T02:53:02;10.90;99.90
17918;DHT22;9084;50.956;3.106;2023-12-29T02:55:29;10.90;99.90
17918;DHT22;9084;50.956;3.106;2023-12-29T02:57:57;10.90;99.90
17918;DHT22;9084;50.956;3.106;2023-12-29T03:00:23;10.90;99.90
17918;DHT22;9084;50.956;3.106;2023-12-29T03:02:48;10.90;99.90
17918;DHT22;9084;50.956;3.106;2023-12-29T03:05:15;10.80;99.90
17918;DHT22;9084;50.956;3.106;2023-12-29T03:07:40;10.90;99.90
17918;DHT22;9084;50.956;3.106;2023-12-29T03:10:09;10.90;99.90
17918;DHT22;9084;50.956;3.106;2023-12-29T03:12:34;10.90;99.90
17918;DHT22;9084;50.956;3.106;2023-12-29T03:15:01;10.90;99.90
17918;DHT22;9084;50.956;3.106;2023-12-29T03:17:28;10.90;99.90
17918;DHT22;9084;50.956;3.106;2023-12-29T03:19:56;10.90;99.90
17918;DHT22;9084;50.956;3.106;2023-12-29T03:22:22;10.80;99.90
17918;DHT22;9084;50.956;3.106;2023-12-29T03:24:48;10.80;99.90
17918;DHT22;9084;50.956;3.106;2023-12-29T03:27:14;10.90;99.90
17918;DHT22;9084;50.956;3.106;2023-12-29T03:29:39;10.80;99.90
17918;DHT22;9084;50.956;3.106;2023-12-29T03:32:05;10.80;99.90
17918;DHT22;9084;50.956;3.106;2023-12-29T03:34:32;10.80;99.90
17918;DHT22;9084;50.956;3.106;2023-12-29T03:36:58;10.80;99.90
17918;DHT22;9084;50.956;3.106;2023-12-29T03:39:24;10.80;99.90
17918;DHT22;9084;50.956;3.106;2023-12-29T03:41:49;10.90;99.90
17918;DHT22;9084;50.956;3.106;2023-12-29T03:44:15;10.90;99.90
17918;DHT22;9084;50.956;3.106;2023-12-29T03:46:42;10.90;99.90
17918;DHT22;9084;50.956;3.106;2023-12-29T03:49:08;10.90;99.90
17918;DHT22;9084;50.956;3.106;2023-12-29T03:51:34;10.90;99.90
17918;DHT22;9084;50.956;3.106;2023-12-29T03:54:02;11.00;78.50
17918;DHT22;9084;50.956;3.106;2023-12-29T03:56:29;11.00;99.90
17918;DHT22;9084;50.956;3.106;2023-12-29T03:58:54;11.10;99.90
17918;DHT22;9084;50.956;3.106;2023-12-29T04:01:22;11.10;99.90
17918;DHT22;9084;50.956;3.106;2023-12-29T04:03:48;11.10;99.90
17918;DHT22;9084;50.956;3.106;2023-12-29T04:06:16;11.10;99.90
17918;DHT22;9084;50.956;3.106;2023-12-29T04:08:42;11.10;99.90
17918;DHT22;9084;50.956;3.106;2023-12-29T04:11:07;11.10;99.90
17918;DHT22;9084;50.956;3.106;2023-12-29T04:13:35;11.10;99.90
17918;DHT22;9084;50.956;3.106;2023-12-29T04:16:01;11.20;99.90
17918;DHT22;9084;50.956;3.106;2023-12-29T04:18:28;11.20;99.90
17918;DHT22;9084;50.956;3.106;2023-12-29T04:20:54;11.20;42.60
17918;DHT22;9084;50.956;3.106;2023-12-29T04:23:19;11.20;99.90
17918;DHT22;9084;50.956;3.106;2023-12-29T04:25:45;11.20;99.90
17918;DHT22;9084;50.956;3.106;2023-12-29T04:28:11;11.20;99.90
17918;DHT22;9084;50.956;3.106;2023-12-29T04:30:37;11.20;99.90
17918;DHT22;9084;50.956;3.106;2023-12-29T04:33:05;11.20;99.90
17918;DHT22;9084;50.956;3.106;2023-12-29T04:35:31;11.20;99.90
17918;DHT22;9084;50.956;3.106;2023-12-29T04:37:59;11.20;99.90
17918;DHT22;9084;50.956;3.106;2023-12-29T04:40:29;11.20;99.90
17918;DHT22;9084;50.956;3.106;2023-12-29T04:42:55;11.10;99.90
17918;DHT22;9084;50.956;3.106;2023-12-29T04:45:21;11.10;99.90
17918;DHT22;9084;50.956;3.106;2023-12-29T04:47:46;11.10;99.90
17918;DHT22;9084;50.956;3.106;2023-12-29T04:50:12;11.10;99.90
17918;DHT22;9084;50.956;3.106;2023-12-29T04:52:38;11.10;99.90
17918;DHT22;9084;50.956;3.106;2023-12-29T04:55:03;11.10;99.90
17918;DHT22;9084;50.956;3.106;2023-12-29T04:57:29;11.10;99.90
17918;DHT22;9084;50.956;3.106;2023-12-29T04:59:55;11.10;99.90
17918;DHT22;9084;50.956;3.106;2023-12-29T05:02:20;11.10;99.90
17918;DHT22;9084;50.956;3.106;2023-12-29T05:04:49;11.10;99.90
17918;DHT22;9084;50.956;3.106;2023-12-29T05:07:14;11.10;99.90
17918;DHT22;9084;50.956;3.106;2023-12-29T05:09:40;11.10;99.90
17918;DHT22;9084;50.956;3.106;2023-12-29T05:12:06;11.10;99.90
17918;DHT22;9084;50.956;3.106;2023-12-29T05:14:32;11.10;99.90
17918;DHT22;9084;50.956;3.106;2023-12-29T05:16:58;11.10;99.90
17918;DHT22;9084;50.956;3.106;2023-12-29T05:19:26;11.10;99.90
17918;DHT22;9084;50.956;3.106;2023-12-29T05:21:52;11.10;99.90
17918;DHT22;9084;50.956;3.106;2023-12-29T05:24:19;11.00;99.90
17918;DHT22;9084;50.956;3.106;2023-12-29T05:26:45;11.00;99.90
17918;DHT22;9084;50.956;3.106;2023-12-29T05:29:10;11.00;99.90
17918;DHT22;9084;50.956;3.106;2023-12-29T05:31:36;11.00;99.90
17918;DHT22;9084;50.956;3.106;2023-12-29T05:34:01;11.00;99.90
17918;DHT22;9084;50.956;3.106;2023-12-29T05:36:27;11.00;99.90
17918;DHT22;9084;50.956;3.106;2023-12-29T05:38:53;11.00;99.90
17918;DHT22;9084;50.956;3.106;2023-12-29T05:41:19;11.00;99.90
17918;DHT22;9084;50.956;3.106;2023-12-29T05:43:44;11.00;99.90
17918;DHT22;9084;50.956;3.106;2023-12-29T05:46:13;11.00;99.90
17918;DHT22;9084;50.956;3.106;2023-12-29T05:48:39;11.00;99.90
17918;DHT22;9084;50.956;3.106;2023-12-29T05:51:08;10.90;99.90
17918;DHT22;9084;50.956;3.106;2023-12-29T05:53:34;10.90;99.90
17918;DHT22;9084;50.956;3.106;2023-12-29T05:56:00;10.80;99.90
17918;DHT22;9084;50.956;3.106;2023-12-29T05:58:26;10.80;99.90
17918;DHT22;9084;50.956;3.106;2023-12-29T06:00:51;10.80;99.90
17918;DHT22;9084;50.956;3.106;2023-12-29T06:03:17;10.70;99.90
17918;DHT22;9084;50.956;3.106;2023-12-29T06:05:45;10.70;99.90
17918;DHT22;9084;50.956;3.106;2023-12-29T06:08:13;10.70;99.90
17918;DHT22;9084;50.956;3.106;2023-12-29T06:10:41;10.60;99.90
17918;DHT22;9084;50.956;3.106;2023-12-29T06:13:08;10.60;99.90
17918;DHT22;9084;50.956;3.106;2023-12-29T06:15:34;10.60;99.90
17918;DHT22;9084;50.956;3.106;2023-12-29T06:18:01;10.50;99.90
17918;DHT22;9084;50.956;3.106;2023-12-29T06:20:27;10.40;99.90
17918;DHT22;9084;50.956;3.106;2023-12-29T06:22:56;10.40;99.90
17918;DHT22;9084;50.956;3.106;2023-12-29T06:25:21;10.40;99.90
17918;DHT22;9084;50.956;3.106;2023-12-29T06:27:47;10.30;99.90
17918;DHT22;9084;50.956;3.106;2023-12-29T06:30:15;10.30;99.90
17918;DHT22;9084;50.956;3.106;2023-12-29T06:32:41;10.30;99.90
17918;DHT22;9084;50.956;3.106;2023-12-29T06:35:07;10.20;99.90
17918;DHT22;9084;50.956;3.106;2023-12-29T06:37:36;10.20;99.90
17918;DHT22;9084;50.956;3.106;2023-12-29T06:40:03;10.20;99.90
17918;DHT22;9084;50.956;3.106;2023-12-29T06:42:29;10.20;99.90
17918;DHT22;9084;50.956;3.106;2023-12-29T06:44:54;10.20;99.90
17918;DHT22;9084;50.956;3.106;2023-12-29T06:47:20;10.20;99.90
17918;DHT22;9084;50.956;3.106;2023-12-29T06:49:46;10.20;99.90
17918;DHT22;9084;50.956;3.106;2023-12-29T06:52:11;10.20;99.90
17918;DHT22;9084;50.956;3.106;2023-12-29T06:54:41;10.20;99.90
17918;DHT22;9084;50.956;3.106;2023-12-29T06:57:07;10.20;99.90
17918;DHT22;9084;50.956;3.106;2023-12-29T06:59:33;10.20;99.90
17918;DHT22;9084;50.956;3.106;2023-12-29T07:01:58;10.20;99.90
17918;DHT22;9084;50.956;3.106;2023-12-29T07:04:26;10.20;99.90
17918;DHT22;9084;50.956;3.106;2023-12-29T07:06:53;10.20;99.90
17918;DHT22;9084;50.956;3.106;2023-12-29T07:09:19;10.20;99.90
17918;DHT22;9084;50.956;3.106;2023-12-29T07:11:52;10.30;99.90
17918;DHT22;9084;50.956;3.106;2023-12-29T07:14:21;10.40;99.90
17918;DHT22;9084;50.956;3.106;2023-12-29T07:16:51;10.40;99.90
17918;DHT22;9084;50.956;3.106;2023-12-29T07:19:17;10.50;99.90
17918;DHT22;9084;50.956;3.106;2023-12-29T07:21:42;10.40;99.90
17918;DHT22;9084;50.956;3.106;2023-12-29T07:24:08;10.50;99.90
17918;DHT22;9084;50.956;3.106;2023-12-29T07:26:35;10.50;99.90
17918;DHT22;9084;50.956;3.106;2023-12-29T07:29:03;10.40;99.90
17918;DHT22;9084;50.956;3.106;2023-12-29T07:31:28;10.40;99.90
17918;DHT22;9084;50.956;3.106;2023-12-29T07:33:59;10.40;99.90
17918;DHT22;9084;50.956;3.106;2023-12-29T07:36:27;10.30;99.90
17918;DHT22;9084;50.956;3.106;2023-12-29T07:38:53;10.30;99.90
17918;DHT22;9084;50.956;3.106;2023-12-29T07:41:18;10.30;99.90
17918;DHT22;9084;50.956;3.106;2023-12-29T07:43:44;10.30;99.90
17918;DHT22;9084;50.956;3.106;2023-12-29T07:46:12;10.30;99.90
17918;DHT22;9084;50.956;3.106;2023-12-29T07:48:37;10.20;99.90
17918;DHT22;9084;50.956;3.106;2023-12-29T07:51:05;10.20;99.90
17918;DHT22;9084;50.956;3.106;2023-12-29T07:53:31;10.20;99.90
17918;DHT22;9084;50.956;3.106;2023-12-29T07:55:57;10.30;99.90
17918;DHT22;9084;50.956;3.106;2023-12-29T07:58:25;10.30;99.90
17918;DHT22;9084;50.956;3.106;2023-12-29T08:00:50;10.30;99.90
17918;DHT22;9084;50.956;3.106;2023-12-29T08:03:16;10.30;99.90
17918;DHT22;9084;50.956;3.106;2023-12-29T08:05:44;10.30;99.90
17918;DHT22;9084;50.956;3.106;2023-12-29T08:08:11;10.30;99.90
17918;DHT22;9084;50.956;3.106;2023-12-29T08:10:39;10.30;99.90
17918;DHT22;9084;50.956;3.106;2023-12-29T08:13:05;10.30;99.90
17918;DHT22;9084;50.956;3.106;2023-12-29T08:15:34;10.30;99.90
17918;DHT22;9084;50.956;3.106;2023-12-29T08:18:03;10.30;99.90
17918;DHT22;9084;50.956;3.106;2023-12-29T08:20:29;10.30;99.90
17918;DHT22;9084;50.956;3.106;2023-12-29T08:22:55;10.20;99.90
17918;DHT22;9084;50.956;3.106;2023-12-29T08:25:22;10.20;99.90
17918;DHT22;9084;50.956;3.106;2023-12-29T08:27:48;10.20;99.90
17918;DHT22;9084;50.956;3.106;2023-12-29T08:30:16;10.10;99.90
17918;DHT22;9084;50.956;3.106;2023-12-29T08:32:44;10.10;99.90
17918;DHT22;9084;50.956;3.106;2023-12-29T08:35:09;10.10;99.90
17918;DHT22;9084;50.956;3.106;2023-12-29T08:37:35;10.10;99.90
17918;DHT22;9084;50.956;3.106;2023-12-29T08:40:03;10.10;99.90
17918;DHT22;9084;50.956;3.106;2023-12-29T08:42:34;10.10;99.90
17918;DHT22;9084;50.956;3.106;2023-12-29T08:45:00;10.10;99.90
17918;DHT22;9084;50.956;3.106;2023-12-29T08:47:26;10.10;99.90
17918;DHT22;9084;50.956;3.106;2023-12-29T08:49:51;10.20;99.90
17918;DHT22;9084;50.956;3.106;2023-12-29T08:52:20;10.20;99.90
17918;DHT22;9084;50.956;3.106;2023-12-29T08:54:45;10.20;99.90
17918;DHT22;9084;50.956;3.106;2023-12-29T08:57:11;10.20;99.90
17918;DHT22;9084;50.956;3.106;2023-12-29T08:59:37;10.20;99.90
17918;DHT22;9084;50.956;3.106;2023-12-29T09:02:03;10.20;99.90
17918;DHT22;9084;50.956;3.106;2023-12-29T09:04:29;10.20;99.90
17918;DHT22;9084;50.956;3.106;2023-12-29T09:06:54;10.30;99.90
17918;DHT22;9084;50.956;3.106;2023-12-29T09:09:20;10.30;99.90
17918;DHT22;9084;50.956;3.106;2023-12-29T09:11:46;10.30;99.90
17918;DHT22;9084;50.956;3.106;2023-12-29T09:14:12;10.30;99.90
17918;DHT22;9084;50.956;3.106;2023-12-29T09:16:38;10.40;99.90
17918;DHT22;9084;50.956;3.106;2023-12-29T09:19:05;10.30;99.90
17918;DHT22;9084;50.956;3.106;2023-12-29T09:21:31;10.40;99.90
17918;DHT22;9084;50.956;3.106;2023-12-29T09:23:57;10.40;99.90
17918;DHT22;9084;50.956;3.106;2023-12-29T09:26:26;10.50;99.90
17918;DHT22;9084;50.956;3.106;2023-12-29T09:28:51;10.60;99.90
17918;DHT22;9084;50.956;3.106;2023-12-29T09:31:17;10.70;99.90
17918;DHT22;9084;50.956;3.106;2023-12-29T09:33:46;10.80;99.90
17918;DHT22;9084;50.956;3.106;2023-12-29T09:36:14;10.90;99.90
17918;DHT22;9084;50.956;3.106;2023-12-29T09:38:39;11.10;99.90
17918;DHT22;9084;50.956;3.106;2023-12-29T09:41:14;11.20;99.90
17918;DHT22;9084;50.956;3.106;2023-12-29T09:43:40;11.30;99.90
17918;DHT22;9084;50.956;3.106;2023-12-29T09:46:08;11.30;99.90
17918;DHT22;9084;50.956;3.106;2023-12-29T09:48:34;11.30;99.90
17918;DHT22;9084;50.956;3.106;2023-12-29T09:51:01;11.30;99.90
17918;DHT22;9084;50.956;3.106;2023-12-29T09:53:29;11.30;99.90
17918;DHT22;9084;50.956;3.106;2023-12-29T09:55:59;11.40;99.90
17918;DHT22;9084;50.956;3.106;2023-12-29T09:58:28;11.50;99.90
17918;DHT22;9084;50.956;3.106;2023-12-29T10:00:57;11.50;99.90
17918;DHT22;9084;50.956;3.106;2023-12-29T10:03:22;11.50;99.90
17918;DHT22;9084;50.956;3.106;2023-12-29T10:05:51;11.50;99.90
17918;DHT22;9084;50.956;3.106;2023-12-29T10:08:21;11.50;99.90
17918;DHT22;9084;50.956;3.106;2023-12-29T10:10:48;11.50;99.90
17918;DHT22;9084;50.956;3.106;2023-12-29T10:13:16;11.60;99.90
17918;DHT22;9084;50.956;3.106;2023-12-29T10:15:47;11.60;99.90
17918;DHT22;9084;50.956;3.106;2023-12-29T10:18:22;11.60;99.90
17918;DHT22;9084;50.956;3.106;2023-12-29T10:23:31;11.60;99.90
17918;DHT22;9084;50.956;3.106;2023-12-29T10:26:00;11.60;99.90
17918;DHT22;9084;50.956;3.106;2023-12-29T10:28:28;11.60;99.90
17918;DHT22;9084;50.956;3.106;2023-12-29T10:30:54;11.70;99.90
17918;DHT22;9084;50.956;3.106;2023-12-29T10:33:22;11.70;99.90
17918;DHT22;9084;50.956;3.106;2023-12-29T10:38:34;11.90;99.90
17918;DHT22;9084;50.956;3.106;2023-12-29T10:41:15;12.00;99.90
17918;DHT22;9084;50.956;3.106;2023-12-29T10:43:43;12.00;99.90
17918;DHT22;9084;50.956;3.106;2023-12-29T10:46:10;12.10;99.90
17918;DHT22;9084;50.956;3.106;2023-12-29T10:48:39;12.10;99.90
17918;DHT22;9084;50.956;3.106;2023-12-29T10:51:06;12.10;99.90
17918;DHT22;9084;50.956;3.106;2023-12-29T10:53:33;12.00;99.90
17918;DHT22;9084;50.956;3.106;2023-12-29T10:55:59;11.90;99.90
17918;DHT22;9084;50.956;3.106;2023-12-29T10:58:29;11.90;99.90
17918;DHT22;9084;50.956;3.106;2023-12-29T11:00:58;11.80;99.90
17918;DHT22;9084;50.956;3.106;2023-12-29T11:03:24;11.70;99.90
17918;DHT22;9084;50.956;3.106;2023-12-29T11:05:53;11.70;99.90
17918;DHT22;9084;50.956;3.106;2023-12-29T11:08:23;11.70;99.90
17918;DHT22;9084;50.956;3.106;2023-12-29T11:10:49;11.70;99.90
17918;DHT22;9084;50.956;3.106;2023-12-29T11:13:16;11.60;99.90
17918;DHT22;9084;50.956;3.106;2023-12-29T11:15:44;11.60;99.90
17918;DHT22;9084;50.956;3.106;2023-12-29T11:18:13;11.70;99.90
17918;DHT22;9084;50.956;3.106;2023-12-29T11:20:41;11.70;99.90
17918;DHT22;9084;50.956;3.106;2023-12-29T11:23:09;11.80;99.90
17918;DHT22;9084;50.956;3.106;2023-12-29T11:25:35;11.80;99.90
17918;DHT22;9084;50.956;3.106;2023-12-29T11:28:01;11.80;99.90
17918;DHT22;9084;50.956;3.106;2023-12-29T11:30:27;11.80;99.90
17918;DHT22;9084;50.956;3.106;2023-12-29T11:33:03;11.80;99.90
17918;DHT22;9084;50.956;3.106;2023-12-29T11:35:43;11.80;99.90
17918;DHT22;9084;50.956;3.106;2023-12-29T11:43:20;11.80;99.90
17918;DHT22;9084;50.956;3.106;2023-12-29T11:45:49;11.80;99.90
17918;DHT22;9084;50.956;3.106;2023-12-29T11:48:53;11.80;99.90
17918;DHT22;9084;50.956;3.106;2023-12-29T11:51:34;11.80;99.90
17918;DHT22;9084;50.956;3.106;2023-12-29T11:54:03;11.80;99.90
17918;DHT22;9084;50.956;3.106;2023-12-29T12:01:47;11.80;99.90
17918;DHT22;9084;50.956;3.106;2023-12-29T12:07:03;11.80;99.90
17918;DHT22;9084;50.956;3.106;2023-12-29T12:09:32;11.80;99.90
17918;DHT22;9084;50.956;3.106;2023-12-29T12:12:01;11.80;99.90
17918;DHT22;9084;50.956;3.106;2023-12-29T12:14:51;11.80;99.90
17918;DHT22;9084;50.956;3.106;2023-12-29T12:20:00;11.90;99.90
17918;DHT22;9084;50.956;3.106;2023-12-29T12:22:30;11.90;99.90
17918;DHT22;9084;50.956;3.106;2023-12-29T12:24:58;12.00;99.90
17918;DHT22;9084;50.956;3.106;2023-12-29T12:27:27;12.10;99.90
17918;DHT22;9084;50.956;3.106;2023-12-29T12:29:57;12.10;99.90
17918;DHT22;9084;50.956;3.106;2023-12-29T12:32:26;12.10;99.90
17918;DHT22;9084;50.956;3.106;2023-12-29T12:34:52;12.10;99.90
17918;DHT22;9084;50.956;3.106;2023-12-29T12:37:21;12.10;99.90
17918;DHT22;9084;50.956;3.106;2023-12-29T12:39:47;12.10;99.90
17918;DHT22;9084;50.956;3.106;2023-12-29T12:42:14;12.20;99.90
17918;DHT22;9084;50.956;3.106;2023-12-29T12:44:56;12.20;99.90
17918;DHT22;9084;50.956;3.106;2023-12-29T12:47:34;12.20;99.90
17918;DHT22;9084;50.956;3.106;2023-12-29T12:50:01;12.20;99.90
17918;DHT22;9084;50.956;3.106;2023-12-29T12:52:35;12.10;99.90
17918;DHT22;9084;50.956;3.106;2023-12-29T12:55:02;12.10;99.90
17918;DHT22;9084;50.956;3.106;2023-12-29T12:57:31;12.10;99.90
17918;DHT22;9084;50.956;3.106;2023-12-29T12:59:57;12.10;99.90
17918;DHT22;9084;50.956;3.106;2023-12-29T13:02:24;12.00;99.90
17918;DHT22;9084;50.956;3.106;2023-12-29T13:04:50;11.90;99.90
17918;DHT22;9084;50.956;3.106;2023-12-29T13:07:19;11.90;99.90
17918;DHT22;9084;50.956;3.106;2023-12-29T13:09:48;11.90;99.90
17918;DHT22;9084;50.956;3.106;2023-12-29T13:12:16;12.00;99.90
17918;DHT22;9084;50.956;3.106;2023-12-29T13:14:45;12.00;99.90
17918;DHT22;9084;50.956;3.106;2023-12-29T13:17:13;12.00;99.90
17918;DHT22;9084;50.956;3.106;2023-12-29T13:19:40;12.00;99.90
17918;DHT22;9084;50.956;3.106;2023-12-29T13:22:11;12.10;99.90
17918;DHT22;9084;50.956;3.106;2023-12-29T13:24:47;12.00;99.90
17918;DHT22;9084;50.956;3.106;2023-12-29T13:27:13;12.00;99.90
17918;DHT22;9084;50.956;3.106;2023-12-29T13:29:39;12.00;99.90
17918;DHT22;9084;50.956;3.106;2023-12-29T13:32:19;11.90;99.90
17918;DHT22;9084;50.956;3.106;2023-12-29T13:37:37;11.90;99.90
17918;DHT22;9084;50.956;3.106;2023-12-29T13:40:22;11.90;99.90
17918;DHT22;9084;50.956;3.106;2023-12-29T13:42:52;11.90;99.90
17918;DHT22;9084;50.956;3.106;2023-12-29T13:45:21;11.90;99.90
17918;DHT22;9084;50.956;3.106;2023-12-29T13:47:50;11.90;99.90
17918;DHT22;9084;50.956;3.106;2023-12-29T13:50:18;11.90;99.90
17918;DHT22;9084;50.956;3.106;2023-12-29T13:52:44;11.90;99.90
17918;DHT22;9084;50.956;3.106;2023-12-29T13:55:10;11.90;99.90
17918;DHT22;9084;50.956;3.106;2023-12-29T13:57:36;11.90;99.90
17918;DHT22;9084;50.956;3.106;2023-12-29T14:02:58;11.70;99.90
17918;DHT22;9084;50.956;3.106;2023-12-29T14:05:48;11.70;99.90
17918;DHT22;9084;50.956;3.106;2023-12-29T14:08:34;11.80;99.90
17918;DHT22;9084;50.956;3.106;2023-12-29T14:11:08;11.80;99.90
17918;DHT22;9084;50.956;3.106;2023-12-29T14:13:45;11.80;99.90
17918;DHT22;9084;50.956;3.106;2023-12-29T14:16:13;11.80;99.90
17918;DHT22;9084;50.956;3.106;2023-12-29T14:26:32;11.50;99.90
17918;DHT22;9084;50.956;3.106;2023-12-29T14:29:06;11.50;99.90
17918;DHT22;9084;50.956;3.106;2023-12-29T14:31:34;11.40;99.90
17918;DHT22;9084;50.956;3.106;2023-12-29T14:34:01;11.40;99.90
17918;DHT22;9084;50.956;3.106;2023-12-29T14:36:26;11.40;99.90
17918;DHT22;9084;50.956;3.106;2023-12-29T14:38:52;11.40;99.90
17918;DHT22;9084;50.956;3.106;2023-12-29T14:41:18;11.40;99.90
17918;DHT22;9084;50.956;3.106;2023-12-29T14:43:44;11.50;99.90
17918;DHT22;9084;50.956;3.106;2023-12-29T14:46:11;11.50;99.90
17918;DHT22;9084;50.956;3.106;2023-12-29T14:48:37;11.40;99.90
17918;DHT22;9084;50.956;3.106;2023-12-29T14:51:04;11.40;99.90
17918;DHT22;9084;50.956;3.106;2023-12-29T14:53:30;11.30;99.90
17918;DHT22;9084;50.956;3.106;2023-12-29T14:55:56;11.20;99.90
17918;DHT22;9084;50.956;3.106;2023-12-29T14:58:22;11.20;99.90
17918;DHT22;9084;50.956;3.106;2023-12-29T15:00:47;11.20;99.90
17918;DHT22;9084;50.956;3.106;2023-12-29T15:03:13;11.20;99.90
17918;DHT22;9084;50.956;3.106;2023-12-29T15:05:43;11.10;99.90
17918;DHT22;9084;50.956;3.106;2023-12-29T15:08:09;11.10;99.90
17918;DHT22;9084;50.956;3.106;2023-12-29T15:10:35;11.10;99.90
17918;DHT22;9084;50.956;3.106;2023-12-29T15:13:01;11.10;99.90
17918;DHT22;9084;50.956;3.106;2023-12-29T15:15:27;11.10;99.90
17918;DHT22;9084;50.956;3.106;2023-12-29T15:17:55;11.00;99.90
17918;DHT22;9084;50.956;3.106;2023-12-29T15:20:28;11.00;99.90
17918;DHT22;9084;50.956;3.106;2023-12-29T15:22:54;10.90;99.90
17918;DHT22;9084;50.956;3.106;2023-12-29T15:25:24;10.90;99.90
17918;DHT22;9084;50.956;3.106;2023-12-29T15:27:53;10.80;99.90
17918;DHT22;9084;50.956;3.106;2023-12-29T15:30:19;10.80;99.90
17918;DHT22;9084;50.956;3.106;2023-12-29T15:32:45;10.80;99.90
17918;DHT22;9084;50.956;3.106;2023-12-29T15:35:11;10.80;99.90
17918;DHT22;9084;50.956;3.106;2023-12-29T15:37:36;10.70;99.90
17918;DHT22;9084;50.956;3.106;2023-12-29T15:40:02;10.70;99.90
17918;DHT22;9084;50.956;3.106;2023-12-29T15:42:31;10.60;99.90
17918;DHT22;9084;50.956;3.106;2023-12-29T15:44:57;10.60;99.90
17918;DHT22;9084;50.956;3.106;2023-12-29T15:47:22;10.60;99.90
17918;DHT22;9084;50.956;3.106;2023-12-29T15:49:48;10.60;99.90
17918;DHT22;9084;50.956;3.106;2023-12-29T15:52:14;10.70;99.90
17918;DHT22;9084;50.956;3.106;2023-12-29T15:54:39;10.70;99.90
17918;DHT22;9084;50.956;3.106;2023-12-29T15:57:07;10.60;99.90
17918;DHT22;9084;50.956;3.106;2023-12-29T15:59:34;10.60;99.90
17918;DHT22;9084;50.956;3.106;2023-12-29T16:02:00;10.60;99.90
17918;DHT22;9084;50.956;3.106;2023-12-29T16:04:25;10.60;99.90
17918;DHT22;9084;50.956;3.106;2023-12-29T16:06:54;10.60;99.90
17918;DHT22;9084;50.956;3.106;2023-12-29T16:09:20;10.50;99.90
17918;DHT22;9084;50.956;3.106;2023-12-29T16:11:48;10.60;99.90
17918;DHT22;9084;50.956;3.106;2023-12-29T16:14:20;10.60;99.90
17918;DHT22;9084;50.956;3.106;2023-12-29T16:16:49;10.60;99.90
17918;DHT22;9084;50.956;3.106;2023-12-29T16:19:15;10.60;99.90
17918;DHT22;9084;50.956;3.106;2023-12-29T16:21:42;10.60;99.90